sensor_id;sensor_type;location;lat;lon;timestamp;temperature;humidity
32173;DHT22;18679;45.190;5.722;2023-03-01T00:02:24;8.70;46.70
32173;DHT22;18679;45.190;5.722;2023-03-01T00:05:25;8.70;46.70
32173;DHT22;18679;45.190;5.722;2023-03-01T00:08:27;8.70;46.70
32173;DHT22;18679;45.190;5.722;2023-03-01T00:11:29;8.70;46.70
32173;DHT22;18679;45.190;5.722;2023-03-01T00:14:31;8.70;46.70
32173;DHT22;18679;45.190;5.722;2023-03-01T00:17:32;8.70;46.70
32173;DHT22;18679;45.190;5.722;2023-03-01T00:20:34;8.70;46.70
32173;DHT22;18679;45.190;5.722;2023-03-01T00:23:35;8.70;46.80
32173;DHT22;18679;45.190;5.722;2023-03-01T00:26:36;8.70;46.80
32173;DHT22;18679;45.190;5.722;2023-03-01T00:29:37;8.70;46.80
32173;DHT22;18679;45.190;5.722;2023-03-01T00:32:38;8.70;46.80
32173;DHT22;18679;45.190;5.722;2023-03-01T00:35:39;8.70;46.80
32173;DHT22;18679;45.190;5.722;2023-03-01T00:38:42;8.70;46.90
32173;DHT22;18679;45.190;5.722;2023-03-01T00:41:44;8.70;46.80
32173;DHT22;18679;45.190;5.722;2023-03-01T00:44:45;8.70;46.80
32173;DHT22;18679;45.190;5.722;2023-03-01T00:47:45;8.70;46.80
32173;DHT22;18679;45.190;5.722;2023-03-01T00:50:46;8.70;46.80
32173;DHT22;18679;45.190;5.722;2023-03-01T00:53:50;8.70;46.90
32173;DHT22;18679;45.190;5.722;2023-03-01T00:56:51;8.70;47.00
32173;DHT22;18679;45.190;5.722;2023-03-01T00:59:52;8.70;47.00
32173;DHT22;18679;45.190;5.722;2023-03-01T01:02:53;8.70;46.90
32173;DHT22;18679;45.190;5.722;2023-03-01T01:05:54;8.80;46.90
32173;DHT22;18679;45.190;5.722;2023-03-01T01:08:56;8.80;46.80
32173;DHT22;18679;45.190;5.722;2023-03-01T01:11:58;8.80;46.80
32173;DHT22;18679;45.190;5.722;2023-03-01T01:14:59;8.90;46.80
32173;DHT22;18679;45.190;5.722;2023-03-01T01:18:00;8.80;46.80
32173;DHT22;18679;45.190;5.722;2023-03-01T01:21:07;8.80;46.80
32173;DHT22;18679;45.190;5.722;2023-03-01T01:24:09;8.70;46.90
32173;DHT22;18679;45.190;5.722;2023-03-01T01:27:09;8.70;46.90
32173;DHT22;18679;45.190;5.722;2023-03-01T01:30:11;8.70;46.90
32173;DHT22;18679;45.190;5.722;2023-03-01T01:33:12;8.80;46.90
32173;DHT22;18679;45.190;5.722;2023-03-01T01:36:13;8.80;46.80
32173;DHT22;18679;45.190;5.722;2023-03-01T01:39:14;8.80;46.80
32173;DHT22;18679;45.190;5.722;2023-03-01T01:42:16;8.80;46.80
32173;DHT22;18679;45.190;5.722;2023-03-01T01:45:33;8.80;46.80
32173;DHT22;18679;45.190;5.722;2023-03-01T01:48:43;8.90;46.90
32173;DHT22;18679;45.190;5.722;2023-03-01T01:51:47;8.80;46.90
32173;DHT22;18679;45.190;5.722;2023-03-01T01:55:10;8.70;46.80
32173;DHT22;18679;45.190;5.722;2023-03-01T01:58:13;8.70;46.80
32173;DHT22;18679;45.190;5.722;2023-03-01T02:01:16;8.80;46.80
32173;DHT22;18679;45.190;5.722;2023-03-01T02:04:17;8.80;46.80
32173;DHT22;18679;45.190;5.722;2023-03-01T02:07:21;8.80;46.60
32173;DHT22;18679;45.190;5.722;2023-03-01T02:10:23;8.80;46.60
32173;DHT22;18679;45.190;5.722;2023-03-01T02:13:26;8.80;46.50
32173;DHT22;18679;45.190;5.722;2023-03-01T02:16:29;8.80;46.60
32173;DHT22;18679;45.190;5.722;2023-03-01T02:23:21;8.70;46.70
32173;DHT22;18679;45.190;5.722;2023-03-01T02:26:46;8.80;46.70
32173;DHT22;18679;45.190;5.722;2023-03-01T02:29:48;8.70;46.70
32173;DHT22;18679;45.190;5.722;2023-03-01T02:32:50;8.70;46.70
32173;DHT22;18679;45.190;5.722;2023-03-01T02:35:53;8.70;46.80
32173;DHT22;18679;45.190;5.722;2023-03-01T02:38:57;8.70;46.80
32173;DHT22;18679;45.190;5.722;2023-03-01T02:41:59;8.70;46.90
32173;DHT22;18679;45.190;5.722;2023-03-01T02:45:02;8.60;46.90
32173;DHT22;18679;45.190;5.722;2023-03-01T02:48:03;8.60;47.00
32173;DHT22;18679;45.190;5.722;2023-03-01T02:51:12;8.70;47.00
32173;DHT22;18679;45.190;5.722;2023-03-01T02:54:28;8.60;47.00
32173;DHT22;18679;45.190;5.722;2023-03-01T02:57:32;8.60;47.10
32173;DHT22;18679;45.190;5.722;2023-03-01T03:00:38;8.60;47.10
32173;DHT22;18679;45.190;5.722;2023-03-01T03:03:48;8.50;47.10
32173;DHT22;18679;45.190;5.722;2023-03-01T03:06:50;8.60;47.20
32173;DHT22;18679;45.190;5.722;2023-03-01T03:09:52;8.60;47.20
32173;DHT22;18679;45.190;5.722;2023-03-01T03:12:55;8.60;47.20
32173;DHT22;18679;45.190;5.722;2023-03-01T03:15:57;8.60;47.20
32173;DHT22;18679;45.190;5.722;2023-03-01T03:18:57;8.60;47.20
32173;DHT22;18679;45.190;5.722;2023-03-01T03:22:05;8.60;47.20
32173;DHT22;18679;45.190;5.722;2023-03-01T03:25:07;8.70;47.20
32173;DHT22;18679;45.190;5.722;2023-03-01T03:28:12;8.70;47.20
32173;DHT22;18679;45.190;5.722;2023-03-01T03:31:13;8.60;47.30
32173;DHT22;18679;45.190;5.722;2023-03-01T03:34:13;8.60;47.30
32173;DHT22;18679;45.190;5.722;2023-03-01T03:37:18;8.60;47.30
32173;DHT22;18679;45.190;5.722;2023-03-01T03:40:42;8.60;47.30
32173;DHT22;18679;45.190;5.722;2023-03-01T03:43:44;8.60;47.50
32173;DHT22;18679;45.190;5.722;2023-03-01T03:46:44;8.50;47.40
32173;DHT22;18679;45.190;5.722;2023-03-01T03:49:45;8.50;47.50
32173;DHT22;18679;45.190;5.722;2023-03-01T03:52:46;8.50;47.50
32173;DHT22;18679;45.190;5.722;2023-03-01T03:55:47;8.50;47.50
32173;DHT22;18679;45.190;5.722;2023-03-01T03:58:49;8.50;47.50
32173;DHT22;18679;45.190;5.722;2023-03-01T04:01:50;8.50;47.50
32173;DHT22;18679;45.190;5.722;2023-03-01T04:04:51;8.50;47.50
32173;DHT22;18679;45.190;5.722;2023-03-01T04:07:52;8.50;47.60
32173;DHT22;18679;45.190;5.722;2023-03-01T04:11:02;8.50;47.70
32173;DHT22;18679;45.190;5.722;2023-03-01T04:14:23;8.40;47.70
32173;DHT22;18679;45.190;5.722;2023-03-01T04:17:24;8.40;47.80
32173;DHT22;18679;45.190;5.722;2023-03-01T04:20:28;8.50;47.80
32173;DHT22;18679;45.190;5.722;2023-03-01T04:23:29;8.50;47.90
32173;DHT22;18679;45.190;5.722;2023-03-01T04:26:30;8.50;47.80
32173;DHT22;18679;45.190;5.722;2023-03-01T04:29:31;8.40;47.80
32173;DHT22;18679;45.190;5.722;2023-03-01T04:32:32;8.40;47.80
32173;DHT22;18679;45.190;5.722;2023-03-01T04:35:34;8.50;47.90
32173;DHT22;18679;45.190;5.722;2023-03-01T04:38:39;8.50;47.90
32173;DHT22;18679;45.190;5.722;2023-03-01T04:41:40;8.50;47.90
32173;DHT22;18679;45.190;5.722;2023-03-01T04:44:44;8.50;47.90
32173;DHT22;18679;45.190;5.722;2023-03-01T04:47:46;8.50;47.90
32173;DHT22;18679;45.190;5.722;2023-03-01T04:50:47;8.50;47.80
32173;DHT22;18679;45.190;5.722;2023-03-01T04:53:48;8.50;47.80
32173;DHT22;18679;45.190;5.722;2023-03-01T04:56:49;8.60;47.80
32173;DHT22;18679;45.190;5.722;2023-03-01T04:59:50;8.50;47.80
32173;DHT22;18679;45.190;5.722;2023-03-01T05:02:54;8.50;47.80
32173;DHT22;18679;45.190;5.722;2023-03-01T05:05:58;8.50;47.90
32173;DHT22;18679;45.190;5.722;2023-03-01T05:09:00;8.50;47.90
32173;DHT22;18679;45.190;5.722;2023-03-01T05:12:01;8.50;47.90
32173;DHT22;18679;45.190;5.722;2023-03-01T05:15:02;8.50;47.80
32173;DHT22;18679;45.190;5.722;2023-03-01T05:18:07;8.60;47.80
32173;DHT22;18679;45.190;5.722;2023-03-01T05:21:13;8.60;47.70
32173;DHT22;18679;45.190;5.722;2023-03-01T05:24:16;8.50;47.80
32173;DHT22;18679;45.190;5.722;2023-03-01T05:27:17;8.40;47.90
32173;DHT22;18679;45.190;5.722;2023-03-01T05:30:18;8.40;48.10
32173;DHT22;18679;45.190;5.722;2023-03-01T05:33:19;8.40;48.00
32173;DHT22;18679;45.190;5.722;2023-03-01T05:36:22;8.30;48.10
32173;DHT22;18679;45.190;5.722;2023-03-01T05:39:25;8.30;48.20
32173;DHT22;18679;45.190;5.722;2023-03-01T05:42:26;8.20;48.30
32173;DHT22;18679;45.190;5.722;2023-03-01T05:45:27;8.30;48.40
32173;DHT22;18679;45.190;5.722;2023-03-01T05:48:28;8.30;48.40
32173;DHT22;18679;45.190;5.722;2023-03-01T05:51:29;8.30;48.30
32173;DHT22;18679;45.190;5.722;2023-03-01T05:54:30;8.30;48.30
32173;DHT22;18679;45.190;5.722;2023-03-01T05:57:31;8.40;48.30
32173;DHT22;18679;45.190;5.722;2023-03-01T06:00:32;8.40;48.20
32173;DHT22;18679;45.190;5.722;2023-03-01T06:03:33;8.40;48.20
32173;DHT22;18679;45.190;5.722;2023-03-01T06:06:35;8.40;48.20
32173;DHT22;18679;45.190;5.722;2023-03-01T06:09:40;8.40;48.20
32173;DHT22;18679;45.190;5.722;2023-03-01T06:12:42;8.50;48.30
32173;DHT22;18679;45.190;5.722;2023-03-01T06:15:44;8.40;48.10
32173;DHT22;18679;45.190;5.722;2023-03-01T06:18:45;8.50;48.20
32173;DHT22;18679;45.190;5.722;2023-03-01T06:21:45;8.40;48.10
32173;DHT22;18679;45.190;5.722;2023-03-01T06:24:47;8.40;48.10
32173;DHT22;18679;45.190;5.722;2023-03-01T06:27:48;7.80;47.80
32173;DHT22;18679;45.190;5.722;2023-03-01T06:30:50;8.40;48.10
32173;DHT22;18679;45.190;5.722;2023-03-01T06:33:52;8.40;48.00
32173;DHT22;18679;45.190;5.722;2023-03-01T06:36:52;8.40;48.10
32173;DHT22;18679;45.190;5.722;2023-03-01T06:39:53;8.50;48.10
32173;DHT22;18679;45.190;5.722;2023-03-01T06:42:54;8.50;48.10
32173;DHT22;18679;45.190;5.722;2023-03-01T06:45:55;8.40;48.00
32173;DHT22;18679;45.190;5.722;2023-03-01T06:48:56;8.40;48.00
32173;DHT22;18679;45.190;5.722;2023-03-01T06:51:57;8.40;48.00
32173;DHT22;18679;45.190;5.722;2023-03-01T06:54:58;8.40;48.00
32173;DHT22;18679;45.190;5.722;2023-03-01T06:58:02;8.40;47.90
32173;DHT22;18679;45.190;5.722;2023-03-01T07:01:07;8.40;48.00
32173;DHT22;18679;45.190;5.722;2023-03-01T07:04:08;8.40;48.00
32173;DHT22;18679;45.190;5.722;2023-03-01T07:07:09;8.40;48.00
32173;DHT22;18679;45.190;5.722;2023-03-01T07:10:10;8.50;48.00
32173;DHT22;18679;45.190;5.722;2023-03-01T07:13:11;8.40;48.00
32173;DHT22;18679;45.190;5.722;2023-03-01T07:16:12;8.40;48.10
32173;DHT22;18679;45.190;5.722;2023-03-01T07:19:14;8.40;48.20
32173;DHT22;18679;45.190;5.722;2023-03-01T07:22:15;8.40;48.20
32173;DHT22;18679;45.190;5.722;2023-03-01T07:25:16;8.30;48.20
32173;DHT22;18679;45.190;5.722;2023-03-01T07:28:17;8.30;48.30
32173;DHT22;18679;45.190;5.722;2023-03-01T07:31:18;8.30;48.30
32173;DHT22;18679;45.190;5.722;2023-03-01T07:34:19;8.40;48.30
32173;DHT22;18679;45.190;5.722;2023-03-01T07:37:20;8.40;48.40
32173;DHT22;18679;45.190;5.722;2023-03-01T07:40:21;8.30;48.30
32173;DHT22;18679;45.190;5.722;2023-03-01T07:43:22;8.30;48.40
32173;DHT22;18679;45.190;5.722;2023-03-01T07:46:22;8.30;48.40
32173;DHT22;18679;45.190;5.722;2023-03-01T07:49:23;8.30;48.40
32173;DHT22;18679;45.190;5.722;2023-03-01T07:52:26;8.40;48.30
32173;DHT22;18679;45.190;5.722;2023-03-01T07:55:28;8.30;48.30
32173;DHT22;18679;45.190;5.722;2023-03-01T07:58:29;8.30;48.40
32173;DHT22;18679;45.190;5.722;2023-03-01T08:01:30;8.30;48.50
32173;DHT22;18679;45.190;5.722;2023-03-01T08:04:32;8.20;48.50
32173;DHT22;18679;45.190;5.722;2023-03-01T08:07:33;8.20;48.60
32173;DHT22;18679;45.190;5.722;2023-03-01T08:10:34;8.20;48.70
32173;DHT22;18679;45.190;5.722;2023-03-01T08:13:36;8.20;48.70
32173;DHT22;18679;45.190;5.722;2023-03-01T08:16:37;8.10;48.70
32173;DHT22;18679;45.190;5.722;2023-03-01T08:19:38;8.10;48.70
32173;DHT22;18679;45.190;5.722;2023-03-01T08:22:39;8.20;48.80
32173;DHT22;18679;45.190;5.722;2023-03-01T08:25:40;8.20;48.70
32173;DHT22;18679;45.190;5.722;2023-03-01T08:28:41;8.30;48.70
32173;DHT22;18679;45.190;5.722;2023-03-01T08:31:42;8.30;48.60
32173;DHT22;18679;45.190;5.722;2023-03-01T08:34:46;8.40;48.50
32173;DHT22;18679;45.190;5.722;2023-03-01T08:37:48;8.40;48.40
32173;DHT22;18679;45.190;5.722;2023-03-01T08:40:49;8.40;48.40
32173;DHT22;18679;45.190;5.722;2023-03-01T08:43:50;8.50;48.50
32173;DHT22;18679;45.190;5.722;2023-03-01T08:46:51;8.50;48.40
32173;DHT22;18679;45.190;5.722;2023-03-01T08:49:53;8.60;48.40
32173;DHT22;18679;45.190;5.722;2023-03-01T08:52:54;8.60;48.30
32173;DHT22;18679;45.190;5.722;2023-03-01T08:55:55;8.70;48.20
32173;DHT22;18679;45.190;5.722;2023-03-01T08:58:56;8.70;48.20
32173;DHT22;18679;45.190;5.722;2023-03-01T09:01:57;8.70;48.10
32173;DHT22;18679;45.190;5.722;2023-03-01T09:04:58;8.80;48.00
32173;DHT22;18679;45.190;5.722;2023-03-01T09:07:58;8.80;48.00
32173;DHT22;18679;45.190;5.722;2023-03-01T09:11:02;8.90;47.90
32173;DHT22;18679;45.190;5.722;2023-03-01T09:14:05;9.00;47.70
32173;DHT22;18679;45.190;5.722;2023-03-01T09:17:06;9.20;47.60
32173;DHT22;18679;45.190;5.722;2023-03-01T09:20:07;9.30;47.40
32173;DHT22;18679;45.190;5.722;2023-03-01T09:23:08;9.40;47.20
32173;DHT22;18679;45.190;5.722;2023-03-01T09:26:11;9.50;46.90
32173;DHT22;18679;45.190;5.722;2023-03-01T09:29:12;9.60;46.80
32173;DHT22;18679;45.190;5.722;2023-03-01T09:32:13;9.70;46.70
32173;DHT22;18679;45.190;5.722;2023-03-01T09:35:14;9.70;46.50
32173;DHT22;18679;45.190;5.722;2023-03-01T09:38:15;9.70;46.40
32173;DHT22;18679;45.190;5.722;2023-03-01T09:41:38;9.70;46.10
32173;DHT22;18679;45.190;5.722;2023-03-01T09:44:53;9.60;46.10
32173;DHT22;18679;45.190;5.722;2023-03-01T09:47:55;9.60;46.20
32173;DHT22;18679;45.190;5.722;2023-03-01T09:50:57;9.60;46.30
32173;DHT22;18679;45.190;5.722;2023-03-01T09:54:01;9.70;46.30
32173;DHT22;18679;45.190;5.722;2023-03-01T09:57:17;9.70;46.00
32173;DHT22;18679;45.190;5.722;2023-03-01T10:00:41;9.70;45.80
32173;DHT22;18679;45.190;5.722;2023-03-01T10:04:00;9.70;45.80
32173;DHT22;18679;45.190;5.722;2023-03-01T10:10:38;9.80;45.50
32173;DHT22;18679;45.190;5.722;2023-03-01T10:13:46;9.80;45.50
32173;DHT22;18679;45.190;5.722;2023-03-01T10:17:24;9.80;45.40
32173;DHT22;18679;45.190;5.722;2023-03-01T10:20:50;9.90;45.30
32173;DHT22;18679;45.190;5.722;2023-03-01T10:23:53;10.00;45.80
32173;DHT22;18679;45.190;5.722;2023-03-01T10:27:01;10.20;44.80
32173;DHT22;18679;45.190;5.722;2023-03-01T10:33:35;10.80;44.50
32173;DHT22;18679;45.190;5.722;2023-03-01T10:36:39;10.80;44.10
32173;DHT22;18679;45.190;5.722;2023-03-01T10:43:01;11.10;43.60
32173;DHT22;18679;45.190;5.722;2023-03-01T10:46:28;11.20;43.40
32173;DHT22;18679;45.190;5.722;2023-03-01T10:49:30;11.40;43.20
32173;DHT22;18679;45.190;5.722;2023-03-01T10:52:37;11.50;42.90
32173;DHT22;18679;45.190;5.722;2023-03-01T10:55:39;11.60;42.60
32173;DHT22;18679;45.190;5.722;2023-03-01T10:59:02;11.80;42.50
32173;DHT22;18679;45.190;5.722;2023-03-01T11:08:14;11.70;41.70
32173;DHT22;18679;45.190;5.722;2023-03-01T11:11:22;12.00;41.70
32173;DHT22;18679;45.190;5.722;2023-03-01T11:14:35;12.10;41.50
32173;DHT22;18679;45.190;5.722;2023-03-01T11:17:37;12.20;41.30
32173;DHT22;18679;45.190;5.722;2023-03-01T11:20:39;12.20;41.00
32173;DHT22;18679;45.190;5.722;2023-03-01T11:23:41;12.20;41.00
32173;DHT22;18679;45.190;5.722;2023-03-01T11:26:50;12.10;40.90
32173;DHT22;18679;45.190;5.722;2023-03-01T11:29:56;12.20;40.90
32173;DHT22;18679;45.190;5.722;2023-03-01T11:33:11;12.20;40.70
32173;DHT22;18679;45.190;5.722;2023-03-01T11:39:36;12.00;40.60
32173;DHT22;18679;45.190;5.722;2023-03-01T12:02:32;11.90;41.30
32173;DHT22;18679;45.190;5.722;2023-03-01T12:18:48;11.80;41.10
32173;DHT22;18679;45.190;5.722;2023-03-01T12:25:39;11.70;41.20
32173;DHT22;18679;45.190;5.722;2023-03-01T12:28:52;11.70;41.20
32173;DHT22;18679;45.190;5.722;2023-03-01T12:32:12;11.70;41.80
32173;DHT22;18679;45.190;5.722;2023-03-01T12:51:34;12.00;40.60
32173;DHT22;18679;45.190;5.722;2023-03-01T12:54:37;12.10;40.50
32173;DHT22;18679;45.190;5.722;2023-03-01T12:57:41;12.20;40.30
32173;DHT22;18679;45.190;5.722;2023-03-01T13:01:02;12.40;40.10
32173;DHT22;18679;45.190;5.722;2023-03-01T13:10:58;13.40;38.70
32173;DHT22;18679;45.190;5.722;2023-03-01T13:17:40;13.70;38.00
32173;DHT22;18679;45.190;5.722;2023-03-01T13:23:48;13.90;37.40
32173;DHT22;18679;45.190;5.722;2023-03-01T13:27:10;14.00;37.20
32173;DHT22;18679;45.190;5.722;2023-03-01T13:30:43;14.00;37.30
32173;DHT22;18679;45.190;5.722;2023-03-01T13:33:49;14.00;37.20
32173;DHT22;18679;45.190;5.722;2023-03-01T13:36:49;14.00;37.20
32173;DHT22;18679;45.190;5.722;2023-03-01T13:39:50;14.10;36.90
32173;DHT22;18679;45.190;5.722;2023-03-01T13:42:53;14.10;36.70
32173;DHT22;18679;45.190;5.722;2023-03-01T13:45:55;13.90;36.40
32173;DHT22;18679;45.190;5.722;2023-03-01T13:48:57;13.80;36.70
32173;DHT22;18679;45.190;5.722;2023-03-01T13:51:58;13.70;37.00
32173;DHT22;18679;45.190;5.722;2023-03-01T13:54:59;13.60;36.80
32173;DHT22;18679;45.190;5.722;2023-03-01T13:58:13;13.50;36.80
32173;DHT22;18679;45.190;5.722;2023-03-01T14:01:24;13.50;37.00
32173;DHT22;18679;45.190;5.722;2023-03-01T14:04:27;13.40;36.90
32173;DHT22;18679;45.190;5.722;2023-03-01T14:07:28;13.40;36.90
32173;DHT22;18679;45.190;5.722;2023-03-01T14:20:27;13.00;37.40
32173;DHT22;18679;45.190;5.722;2023-03-01T14:23:29;13.00;37.50
32173;DHT22;18679;45.190;5.722;2023-03-01T14:26:31;12.90;37.40
32173;DHT22;18679;45.190;5.722;2023-03-01T14:29:37;12.70;37.50
32173;DHT22;18679;45.190;5.722;2023-03-01T14:32:38;12.60;37.80
32173;DHT22;18679;45.190;5.722;2023-03-01T14:35:39;12.50;38.00
32173;DHT22;18679;45.190;5.722;2023-03-01T14:38:43;12.40;38.10
32173;DHT22;18679;45.190;5.722;2023-03-01T14:41:45;12.40;38.30
32173;DHT22;18679;45.190;5.722;2023-03-01T14:44:48;12.30;38.50
32173;DHT22;18679;45.190;5.722;2023-03-01T14:47:50;12.20;38.60
32173;DHT22;18679;45.190;5.722;2023-03-01T14:50:51;12.10;38.80
32173;DHT22;18679;45.190;5.722;2023-03-01T14:53:53;12.10;39.00
32173;DHT22;18679;45.190;5.722;2023-03-01T14:57:00;12.00;39.00
32173;DHT22;18679;45.190;5.722;2023-03-01T15:00:05;11.90;39.10
32173;DHT22;18679;45.190;5.722;2023-03-01T15:03:46;12.00;39.40
32173;DHT22;18679;45.190;5.722;2023-03-01T15:06:51;12.60;39.60
32173;DHT22;18679;45.190;5.722;2023-03-01T15:09:52;11.90;39.40
32173;DHT22;18679;45.190;5.722;2023-03-01T15:12:53;11.90;39.60
32173;DHT22;18679;45.190;5.722;2023-03-01T15:16:01;11.80;39.80
32173;DHT22;18679;45.190;5.722;2023-03-01T15:19:05;11.60;39.90
32173;DHT22;18679;45.190;5.722;2023-03-01T15:22:14;11.50;40.10
32173;DHT22;18679;45.190;5.722;2023-03-01T15:25:21;11.40;41.00
32173;DHT22;18679;45.190;5.722;2023-03-01T15:28:31;11.20;40.60
32173;DHT22;18679;45.190;5.722;2023-03-01T15:31:35;11.10;40.80
32173;DHT22;18679;45.190;5.722;2023-03-01T15:34:38;10.90;41.10
32173;DHT22;18679;45.190;5.722;2023-03-01T15:37:45;10.80;41.30
32173;DHT22;18679;45.190;5.722;2023-03-01T15:40:51;10.70;41.60
32173;DHT22;18679;45.190;5.722;2023-03-01T15:43:53;10.70;41.70
32173;DHT22;18679;45.190;5.722;2023-03-01T15:46:58;10.60;41.80
32173;DHT22;18679;45.190;5.722;2023-03-01T15:50:00;10.70;42.00
32173;DHT22;18679;45.190;5.722;2023-03-01T15:53:06;10.60;42.00
32173;DHT22;18679;45.190;5.722;2023-03-01T15:56:07;10.90;42.40
32173;DHT22;18679;45.190;5.722;2023-03-01T15:59:10;10.40;42.30
32173;DHT22;18679;45.190;5.722;2023-03-01T16:02:13;10.40;42.50
32173;DHT22;18679;45.190;5.722;2023-03-01T16:05:29;10.30;42.60
32173;DHT22;18679;45.190;5.722;2023-03-01T16:08:31;10.20;42.70
32173;DHT22;18679;45.190;5.722;2023-03-01T16:11:32;10.20;43.00
32173;DHT22;18679;45.190;5.722;2023-03-01T16:14:34;10.10;43.20
32173;DHT22;18679;45.190;5.722;2023-03-01T16:17:35;10.00;43.30
32173;DHT22;18679;45.190;5.722;2023-03-01T16:20:36;10.00;43.50
32173;DHT22;18679;45.190;5.722;2023-03-01T16:23:37;10.00;43.70
32173;DHT22;18679;45.190;5.722;2023-03-01T16:26:37;9.90;43.70
32173;DHT22;18679;45.190;5.722;2023-03-01T16:29:38;9.90;43.90
32173;DHT22;18679;45.190;5.722;2023-03-01T16:32:40;9.70;44.10
32173;DHT22;18679;45.190;5.722;2023-03-01T16:35:42;9.60;44.40
32173;DHT22;18679;45.190;5.722;2023-03-01T16:38:44;9.40;44.60
32173;DHT22;18679;45.190;5.722;2023-03-01T16:41:48;9.30;44.90
32173;DHT22;18679;45.190;5.722;2023-03-01T16:44:49;9.20;45.20
32173;DHT22;18679;45.190;5.722;2023-03-01T16:47:54;9.10;45.40
32173;DHT22;18679;45.190;5.722;2023-03-01T16:50:59;9.00;45.60
32173;DHT22;18679;45.190;5.722;2023-03-01T16:54:00;8.90;45.70
32173;DHT22;18679;45.190;5.722;2023-03-01T16:57:02;8.80;46.00
32173;DHT22;18679;45.190;5.722;2023-03-01T17:00:07;8.80;46.30
32173;DHT22;18679;45.190;5.722;2023-03-01T17:03:11;8.70;46.60
32173;DHT22;18679;45.190;5.722;2023-03-01T17:06:17;8.60;46.70
32173;DHT22;18679;45.190;5.722;2023-03-01T17:09:18;8.60;46.80
32173;DHT22;18679;45.190;5.722;2023-03-01T17:12:22;8.60;46.90
32173;DHT22;18679;45.190;5.722;2023-03-01T17:15:23;8.50;47.00
32173;DHT22;18679;45.190;5.722;2023-03-01T17:18:24;8.50;47.10
32173;DHT22;18679;45.190;5.722;2023-03-01T17:21:25;8.50;47.20
32173;DHT22;18679;45.190;5.722;2023-03-01T17:24:26;8.50;47.30
32173;DHT22;18679;45.190;5.722;2023-03-01T17:27:27;8.40;47.30
32173;DHT22;18679;45.190;5.722;2023-03-01T17:30:28;8.40;47.40
32173;DHT22;18679;45.190;5.722;2023-03-01T17:33:29;8.40;47.50
32173;DHT22;18679;45.190;5.722;2023-03-01T17:36:30;8.40;47.50
32173;DHT22;18679;45.190;5.722;2023-03-01T17:39:34;8.40;47.50
32173;DHT22;18679;45.190;5.722;2023-03-01T17:42:35;8.40;47.50
32173;DHT22;18679;45.190;5.722;2023-03-01T17:45:37;8.40;47.60
32173;DHT22;18679;45.190;5.722;2023-03-01T17:48:38;8.40;47.70
32173;DHT22;18679;45.190;5.722;2023-03-01T17:51:39;8.40;47.80
32173;DHT22;18679;45.190;5.722;2023-03-01T17:54:40;8.40;47.80
32173;DHT22;18679;45.190;5.722;2023-03-01T17:57:41;8.40;47.80
32173;DHT22;18679;45.190;5.722;2023-03-01T18:00:42;8.40;47.80
32173;DHT22;18679;45.190;5.722;2023-03-01T18:03:43;8.40;47.90
32173;DHT22;18679;45.190;5.722;2023-03-01T18:06:47;8.40;47.90
32173;DHT22;18679;45.190;5.722;2023-03-01T18:09:48;8.40;48.00
32173;DHT22;18679;45.190;5.722;2023-03-01T18:12:50;8.40;48.00
32173;DHT22;18679;45.190;5.722;2023-03-01T18:15:51;8.30;48.00
32173;DHT22;18679;45.190;5.722;2023-03-01T18:18:53;8.40;48.00
32173;DHT22;18679;45.190;5.722;2023-03-01T18:21:54;8.40;48.00
32173;DHT22;18679;45.190;5.722;2023-03-01T18:24:55;8.40;47.40
32173;DHT22;18679;45.190;5.722;2023-03-01T18:27:56;8.50;47.90
32173;DHT22;18679;45.190;5.722;2023-03-01T18:30:58;8.40;47.70
32173;DHT22;18679;45.190;5.722;2023-03-01T18:33:59;8.40;47.80
32173;DHT22;18679;45.190;5.722;2023-03-01T18:37:01;8.40;47.80
32173;DHT22;18679;45.190;5.722;2023-03-01T18:40:02;8.40;47.90
32173;DHT22;18679;45.190;5.722;2023-03-01T18:43:04;8.40;47.90
32173;DHT22;18679;45.190;5.722;2023-03-01T18:46:05;8.40;47.90
32173;DHT22;18679;45.190;5.722;2023-03-01T18:49:07;8.40;47.90
32173;DHT22;18679;45.190;5.722;2023-03-01T18:52:08;8.40;48.00
32173;DHT22;18679;45.190;5.722;2023-03-01T18:55:09;8.40;48.10
32173;DHT22;18679;45.190;5.722;2023-03-01T18:58:10;8.40;48.10
32173;DHT22;18679;45.190;5.722;2023-03-01T19:01:14;8.40;48.10
32173;DHT22;18679;45.190;5.722;2023-03-01T19:04:15;8.40;48.10
32173;DHT22;18679;45.190;5.722;2023-03-01T19:07:16;8.40;48.20
32173;DHT22;18679;45.190;5.722;2023-03-01T19:10:17;8.40;48.10
32173;DHT22;18679;45.190;5.722;2023-03-01T19:13:18;8.40;48.10
32173;DHT22;18679;45.190;5.722;2023-03-01T19:16:23;8.40;48.20
32173;DHT22;18679;45.190;5.722;2023-03-01T19:19:27;8.40;48.00
32173;DHT22;18679;45.190;5.722;2023-03-01T19:22:28;8.40;48.00
32173;DHT22;18679;45.190;5.722;2023-03-01T19:25:29;8.40;48.00
32173;DHT22;18679;45.190;5.722;2023-03-01T19:28:30;8.50;48.10
32173;DHT22;18679;45.190;5.722;2023-03-01T19:31:30;8.50;48.00
32173;DHT22;18679;45.190;5.722;2023-03-01T19:34:32;8.50;48.00
32173;DHT22;18679;45.190;5.722;2023-03-01T19:37:34;8.50;48.00
32173;DHT22;18679;45.190;5.722;2023-03-01T19:40:35;8.50;48.00
32173;DHT22;18679;45.190;5.722;2023-03-01T19:43:36;8.50;48.00
32173;DHT22;18679;45.190;5.722;2023-03-01T19:46:38;8.60;47.90
32173;DHT22;18679;45.190;5.722;2023-03-01T19:49:39;8.60;47.90
32173;DHT22;18679;45.190;5.722;2023-03-01T19:52:40;8.60;47.80
32173;DHT22;18679;45.190;5.722;2023-03-01T19:55:41;8.70;47.80
32173;DHT22;18679;45.190;5.722;2023-03-01T19:58:42;8.60;47.80
32173;DHT22;18679;45.190;5.722;2023-03-01T20:01:44;8.60;47.80
32173;DHT22;18679;45.190;5.722;2023-03-01T20:04:45;8.60;47.80
32173;DHT22;18679;45.190;5.722;2023-03-01T20:07:46;8.70;47.80
32173;DHT22;18679;45.190;5.722;2023-03-01T20:10:47;8.70;47.80
32173;DHT22;18679;45.190;5.722;2023-03-01T20:13:48;8.70;47.80
32173;DHT22;18679;45.190;5.722;2023-03-01T20:16:49;8.70;47.70
32173;DHT22;18679;45.190;5.722;2023-03-01T20:19:49;8.70;47.70
32173;DHT22;18679;45.190;5.722;2023-03-01T20:22:50;8.70;47.70
32173;DHT22;18679;45.190;5.722;2023-03-01T20:25:59;8.80;47.60
32173;DHT22;18679;45.190;5.722;2023-03-01T20:29:00;8.70;47.60
32173;DHT22;18679;45.190;5.722;2023-03-01T20:32:01;8.70;47.60
32173;DHT22;18679;45.190;5.722;2023-03-01T20:35:02;8.70;47.70
32173;DHT22;18679;45.190;5.722;2023-03-01T20:38:04;8.70;47.60
32173;DHT22;18679;45.190;5.722;2023-03-01T20:41:07;8.70;47.70
32173;DHT22;18679;45.190;5.722;2023-03-01T20:44:08;8.70;47.70
32173;DHT22;18679;45.190;5.722;2023-03-01T20:47:10;8.70;47.70
32173;DHT22;18679;45.190;5.722;2023-03-01T20:50:11;8.70;47.60
32173;DHT22;18679;45.190;5.722;2023-03-01T20:53:12;8.80;47.60
32173;DHT22;18679;45.190;5.722;2023-03-01T20:56:14;8.80;47.50
32173;DHT22;18679;45.190;5.722;2023-03-01T20:59:15;8.80;47.50
32173;DHT22;18679;45.190;5.722;2023-03-01T21:02:16;8.90;47.50
32173;DHT22;18679;45.190;5.722;2023-03-01T21:05:17;8.90;47.40
32173;DHT22;18679;45.190;5.722;2023-03-01T21:08:19;9.00;47.30
32173;DHT22;18679;45.190;5.722;2023-03-01T21:11:20;9.00;47.30
32173;DHT22;18679;45.190;5.722;2023-03-01T21:14:24;8.90;47.20